Time;durP1;ratioP1;P1;durP2;ratioP2;P2;SDS_P1;SDS_P2;PMS_P1;PMS_P2;Temp;Humidity;BMP_temperature;BMP_pressure;BME280_temperature;BME280_humidity;BME280_pressure;Samples;Min_cycle;Max_cycle;Signal;HPM_P1;HPM_P2
2021/11/11 00:00:13;;;;;;;40.83;19.00;;;3.60;27.20;;;;;;5154967;27;20727;-70
2021/11/11 00:03:03;;;;;;;41.63;19.50;;;3.60;23.10;;;;;;5155751;27;20688;-71
2021/11/11 00:05:50;;;;;;;51.63;20.77;;;3.60;14.50;;;;;;5156441;27;20601;-70
2021/11/11 00:08:38;;;;;;;45.67;19.57;;;3.60;24.60;;;;;;5157256;27;20194;-70
2021/11/11 00:11:25;;;;;;;43.97;19.87;;;3.60;23.20;;;;;;5156701;27;20198;-70
2021/11/11 00:14:13;;;;;;;46.90;21.57;;;3.60;24.50;;;;;;5150697;27;20539;-71
2021/11/11 00:17:01;;;;;;;56.00;24.10;;;3.60;33.50;;;;;;5149381;27;20228;-70
2021/11/11 00:19:50;;;;;;;53.50;24.60;;;3.70;43.10;;;;;;5155597;27;20204;-70
2021/11/11 00:22:37;;;;;;;50.37;23.93;;;3.70;28.50;;;;;;5159880;27;20201;-71
2021/11/11 00:25:25;;;;;;;52.80;25.70;;;3.60;24.80;;;;;;5157106;27;20200;-70
2021/11/11 00:28:13;;;;;;;52.33;24.63;;;3.60;28.10;;;;;;5151426;27;20195;-70
2021/11/11 00:31:00;;;;;;;45.97;22.00;;;3.60;23.00;;;;;;5149162;27;20198;-70
2021/11/11 00:33:48;;;;;;;49.07;21.80;;;3.60;20.50;;;;;;5157170;27;20201;-70
2021/11/11 00:36:37;;;;;;;46.47;21.67;;;3.50;18.40;;;;;;5161741;27;20190;-70
2021/11/11 00:39:25;;;;;;;49.03;22.90;;;3.40;12.60;;;;;;5154568;27;20198;-70
2021/11/11 00:42:12;;;;;;;42.13;20.87;;;3.30;16.50;;;;;;5157778;27;20194;-70
2021/11/11 00:45:00;;;;;;;50.27;22.50;;;3.30;20.40;;;;;;5149023;27;20198;-70
2021/11/11 00:47:50;;;;;;;47.90;22.03;;;3.20;23.70;;;;;;5160669;27;20682;-70
2021/11/11 00:50:38;;;;;;;45.03;21.30;;;3.20;31.70;;;;;;5161242;27;20289;-70
2021/11/11 00:53:27;;;;;;;44.57;22.10;;;3.20;39.60;;;;;;5152728;27;20207;-70
2021/11/11 00:56:14;;;;;;;49.47;21.73;;;3.10;64.60;;;;;;5154807;27;20225;-70
2021/11/11 00:59:02;;;;;;;47.13;21.50;;;3.10;85.90;;;;;;5153990;27;20690;-70
2021/11/11 01:01:50;;;;;;;46.73;20.80;;;3.10;99.90;;;;;;5160206;27;20496;-70
2021/11/11 01:04:38;;;;;;;49.50;21.27;;;3.00;99.90;;;;;;5154430;27;20921;-70
2021/11/11 01:07:26;;;;;;;48.57;22.27;;;3.00;99.90;;;;;;5159941;27;20225;-70
2021/11/11 01:10:16;;;;;;;48.07;20.13;;;3.00;99.90;;;;;;5148341;27;20653;-71
2021/11/11 01:13:04;;;;;;;47.10;20.93;;;3.00;99.90;;;;;;5149202;27;20309;-70
2021/11/11 01:15:52;;;;;;;42.30;19.77;;;2.90;99.90;;;;;;5156712;27;20221;-70
2021/11/11 01:18:39;;;;;;;45.83;20.47;;;2.90;99.90;;;;;;5154076;27;20204;-70
2021/11/11 01:21:27;;;;;;;45.13;21.43;;;2.80;99.90;;;;;;5154934;27;20202;-71
2021/11/11 01:24:15;;;;;;;44.67;20.73;;;2.80;99.90;;;;;;5149391;27;20213;-70
2021/11/11 01:27:05;;;;;;;49.63;20.03;;;2.80;99.90;;;;;;5145560;27;20208;-70
2021/11/11 01:29:52;;;;;;;46.37;19.93;;;2.70;99.90;;;;;;5145136;27;20265;-71
2021/11/11 01:32:40;;;;;;;45.83;19.67;;;2.70;99.90;;;;;;5148193;27;20225;-70
2021/11/11 01:35:27;;;;;;;40.40;19.00;;;2.70;99.90;;;;;;5157763;27;20355;-71
2021/11/11 01:38:16;;;;;;;47.23;20.80;;;2.60;99.90;;;;;;5152336;27;20216;-70
2021/11/11 01:41:03;;;;;;;48.93;20.50;;;2.60;99.90;;;;;;5149452;27;20234;-70
2021/11/11 01:43:52;;;;;;;44.53;20.07;;;2.60;99.90;;;;;;5147095;27;20213;-70
2021/11/11 01:46:40;;;;;;;47.67;18.77;;;2.60;99.90;;;;;;5160463;27;20190;-70
2021/11/11 01:49:28;;;;;;;46.50;19.13;;;2.60;99.90;;;;;;5153092;27;20209;-70
2021/11/11 01:52:18;;;;;;;41.77;19.27;;;2.60;99.90;;;;;;5154794;27;20294;-70
2021/11/11 01:55:05;;;;;;;43.77;20.93;;;2.50;99.90;;;;;;5148741;27;20214;-70
2021/11/11 01:57:53;;;;;;;44.33;19.60;;;2.40;99.90;;;;;;5163183;27;20200;-70
2021/11/11 02:00:44;;;;;;;43.93;19.07;;;2.40;99.90;;;;;;5150516;27;20206;-70
2021/11/11 02:03:32;;;;;;;44.80;21.13;;;2.40;99.90;;;;;;5153515;27;20197;-70
2021/11/11 02:06:19;;;;;;;45.07;20.50;;;2.40;99.90;;;;;;5152831;27;20218;-70
2021/11/11 02:09:08;;;;;;;47.63;21.27;;;2.30;99.90;;;;;;5149437;27;20201;-70
2021/11/11 02:11:55;;;;;;;38.27;18.93;;;2.40;99.90;;;;;;5157581;27;20189;-70
2021/11/11 02:14:43;;;;;;;44.57;20.40;;;2.30;99.90;;;;;;5162306;27;20196;-70
2021/11/11 02:17:32;;;;;;;44.83;19.93;;;2.30;99.90;;;;;;5146232;27;20202;-70
2021/11/11 02:20:22;;;;;;;44.47;20.03;;;2.30;99.90;;;;;;5150959;27;20573;-71
2021/11/11 02:23:11;;;;;;;48.33;21.30;;;2.30;99.90;;;;;;5148166;27;20578;-70
2021/11/11 02:25:59;;;;;;;40.53;19.77;;;2.30;99.90;;;;;;5152962;27;20209;-70
2021/11/11 02:28:47;;;;;;;44.37;20.80;;;2.40;99.90;;;;;;5152586;27;20679;-70
2021/11/11 02:31:35;;;;;;;44.33;19.83;;;2.30;99.90;;;;;;5152893;27;20197;-70
2021/11/11 02:34:23;;;;;;;45.93;20.43;;;2.40;99.90;;;;;;5152327;27;20216;-70
2021/11/11 02:37:12;;;;;;;45.80;20.93;;;2.40;99.90;;;;;;5149771;27;20671;-70
2021/11/11 02:40:00;;;;;;;45.00;21.47;;;2.40;99.90;;;;;;5147610;27;20190;-70
2021/11/11 02:42:47;;;;;;;43.07;21.13;;;2.40;99.90;;;;;;5152812;27;20631;-70
2021/11/11 02:45:39;;;;;;;46.17;21.33;;;2.40;99.90;;;;;;5154812;27;20244;-70
2021/11/11 02:48:27;;;;;;;52.17;23.43;;;2.40;99.90;;;;;;5153704;27;20198;-70
2021/11/11 02:51:14;;;;;;;67.77;25.50;;;2.40;99.90;;;;;;5153498;27;20209;-71
2021/11/11 02:54:03;;;;;;;53.80;23.73;;;2.40;99.90;;;;;;5147151;27;20241;-70
2021/11/11 02:56:51;;;;;;;48.67;21.60;;;2.40;99.90;;;;;;5158842;27;20201;-70
2021/11/11 02:59:39;;;;;;;58.70;24.77;;;2.40;99.90;;;;;;5158520;27;20205;-70
2021/11/11 03:02:28;;;;;;;53.03;23.93;;;2.40;99.90;;;;;;5157149;27;20259;-70
2021/11/11 03:05:18;;;;;;;57.07;24.43;;;2.40;99.90;;;;;;5148782;27;20374;-70
2021/11/11 03:08:06;;;;;;;75.00;28.67;;;2.40;99.90;;;;;;5142547;27;20198;-70
2021/11/11 03:10:55;;;;;;;79.70;30.13;;;2.40;99.90;;;;;;5145983;27;20201;-70
2021/11/11 03:13:42;;;;;;;163.07;49.40;;;2.40;99.90;;;;;;5159118;27;20655;-70
2021/11/11 03:16:30;;;;;;;147.10;47.50;;;2.40;99.90;;;;;;5154098;27;20277;-70
2021/11/11 03:19:18;;;;;;;128.00;41.77;;;2.40;99.90;;;;;;5152005;27;20193;-70
2021/11/11 03:22:06;;;;;;;134.43;43.50;;;2.40;99.90;;;;;;5153344;27;20190;-70
2021/11/11 03:24:54;;;;;;;150.97;47.97;;;2.40;99.90;;;;;;5152405;27;20201;-70
2021/11/11 03:27:43;;;;;;;88.77;32.37;;;2.40;99.90;;;;;;5153332;27;20197;-70
2021/11/11 03:30:30;;;;;;;89.67;30.87;;;2.50;99.90;;;;;;5153432;27;20193;-70
2021/11/11 03:33:18;;;;;;;70.20;28.37;;;2.40;99.90;;;;;;5149042;27;20606;-70
2021/11/11 03:36:06;;;;;;;54.63;23.13;;;2.40;99.90;;;;;;5147044;27;20194;-70
2021/11/11 03:38:54;;;;;;;45.43;19.30;;;2.40;99.90;;;;;;5148770;27;20201;-70
2021/11/11 03:41:41;;;;;;;39.27;18.93;;;2.50;99.90;;;;;;5155300;27;20243;-70
2021/11/11 03:44:30;;;;;;;44.10;20.60;;;2.50;99.90;;;;;;5156053;27;20682;-70
2021/11/11 03:47:19;;;;;;;41.13;20.03;;;2.50;99.90;;;;;;5152892;27;20198;-70
2021/11/11 03:50:07;;;;;;;40.80;19.73;;;2.50;99.90;;;;;;5154542;27;20567;-70
2021/11/11 03:52:56;;;;;;;42.17;20.37;;;2.50;99.90;;;;;;5156392;27;20190;-70
2021/11/11 03:55:43;;;;;;;38.77;19.50;;;2.40;99.90;;;;;;5152951;27;20274;-70
2021/11/11 03:58:31;;;;;;;38.50;18.87;;;2.40;99.90;;;;;;5157376;27;20282;-70
2021/11/11 04:01:20;;;;;;;38.57;19.33;;;2.40;99.90;;;;;;5150933;27;20284;-71
2021/11/11 04:04:07;;;;;;;42.07;20.03;;;2.30;99.90;;;;;;5151143;27;20274;-70
2021/11/11 04:06:55;;;;;;;44.63;19.00;;;2.30;99.90;;;;;;5155073;27;20241;-70
2021/11/11 04:09:42;;;;;;;37.27;19.10;;;2.30;99.90;;;;;;5160772;27;20197;-70
2021/11/11 04:12:30;;;;;;;37.47;17.87;;;2.30;99.90;;;;;;5161229;27;20208;-70
2021/11/11 04:15:17;;;;;;;40.60;19.57;;;2.30;99.90;;;;;;5157520;27;20205;-70
2021/11/11 04:18:06;;;;;;;38.43;18.67;;;2.20;99.90;;;;;;5155303;27;20207;-71
2021/11/11 04:20:54;;;;;;;38.20;18.43;;;2.20;99.90;;;;;;5161998;27;20197;-70
2021/11/11 04:23:42;;;;;;;39.20;19.87;;;2.20;99.90;;;;;;5155666;27;20185;-70
2021/11/11 04:26:31;;;;;;;68.57;27.20;;;2.20;99.90;;;;;;5158963;27;20694;-70
2021/11/11 04:29:21;;;;;;;67.87;27.70;;;2.10;99.90;;;;;;5154292;27;20233;-70
2021/11/11 04:32:11;;;;;;;53.40;23.87;;;2.00;99.90;;;;;;5150760;27;20235;-71
2021/11/11 04:35:01;;;;;;;41.17;19.97;;;2.00;99.90;;;;;;5149833;27;20190;-70
2021/11/11 04:37:57;;;;;;;48.47;21.27;;;2.00;99.90;;;;;;5163748;27;20193;-70
2021/11/11 04:41:12;;;;;;;48.47;20.83;;;2.00;99.90;;;;;;5166307;27;20577;-70
2021/11/11 04:44:07;;;;;;;50.10;21.53;;;1.90;99.90;;;;;;5160842;27;20330;-70
2021/11/11 04:50:38;;;;;;;35.57;18.13;;;1.80;99.90;;;;;;5154043;27;20234;-70
2021/11/11 04:59:49;;;;;;;43.20;21.03;;;1.60;99.90;;;;;;5156819;27;20668;-70
2021/11/11 05:02:58;;;;;;;42.50;20.33;;;1.70;99.90;;;;;;5162263;27;20200;-70
2021/11/11 05:05:46;;;;;;;40.83;19.87;;;1.60;99.90;;;;;;5164344;27;20737;-70
2021/11/11 05:08:35;;;;;;;38.23;19.57;;;1.60;99.90;;;;;;5163904;27;20201;-70
2021/11/11 05:11:22;;;;;;;42.97;19.93;;;1.50;99.90;;;;;;5149469;27;20222;-70
2021/11/11 05:14:10;;;;;;;39.83;19.20;;;1.50;99.90;;;;;;5147580;27;20297;-71
2021/11/11 05:16:57;;;;;;;41.23;19.23;;;1.50;99.90;;;;;;5148347;27;20590;-70
2021/11/11 05:19:45;;;;;;;40.67;19.23;;;1.50;99.90;;;;;;5153328;27;20204;-70
2021/11/11 05:22:32;;;;;;;41.47;18.27;;;1.40;99.90;;;;;;5155640;27;20197;-71
2021/11/11 05:25:22;;;;;;;40.80;19.27;;;1.40;99.90;;;;;;5153457;27;20205;-70
2021/11/11 05:28:09;;;;;;;40.67;20.33;;;1.40;99.90;;;;;;5155954;27;20193;-70
2021/11/11 05:30:56;;;;;;;43.87;21.23;;;1.30;99.90;;;;;;5163119;27;20190;-70
2021/11/11 05:33:44;;;;;;;47.33;22.13;;;1.30;99.90;;;;;;5161666;27;20213;-70
2021/11/11 05:36:31;;;;;;;47.63;21.20;;;1.30;99.90;;;;;;5160507;27;20220;-70
2021/11/11 05:40:08;;;;;;;50.03;22.50;;;1.30;99.90;;;;;;5155721;27;20538;-70
2021/11/11 05:43:25;;;;;;;83.60;34.13;;;1.20;99.90;;;;;;5151620;27;20204;-70
2021/11/11 05:46:43;;;;;;;42.20;19.73;;;1.20;99.90;;;;;;5132235;27;20721;-70
2021/11/11 05:49:30;;;;;;;47.87;21.27;;;1.20;99.90;;;;;;5158105;27;20245;-70
2021/11/11 05:53:02;;;;;;;65.30;28.93;;;1.20;99.90;;;;;;5166981;27;20196;-70
2021/11/11 05:55:51;;;;;;;73.20;29.80;;;1.20;99.90;;;;;;5143467;27;20236;-70
2021/11/11 05:58:40;;;;;;;60.37;27.33;;;1.10;99.90;;;;;;5149680;27;20258;-69
2021/11/11 06:01:28;;;;;;;59.90;27.43;;;1.20;99.90;;;;;;5153306;27;20193;-70
2021/11/11 06:04:18;;;;;;;61.07;27.50;;;1.20;99.90;;;;;;5152046;27;20197;-69
2021/11/11 06:07:06;;;;;;;55.43;23.67;;;1.20;99.90;;;;;;5155013;27;20299;-69
2021/11/11 06:09:54;;;;;;;49.20;23.23;;;1.20;99.90;;;;;;5153636;27;20193;-70
2021/11/11 06:12:41;;;;;;;55.23;24.97;;;1.20;99.90;;;;;;5155767;27;20639;-70
2021/11/11 06:15:30;;;;;;;50.07;22.93;;;1.20;99.90;;;;;;5148527;27;20590;-69
2021/11/11 06:18:20;;;;;;;42.67;20.23;;;1.20;99.90;;;;;;5153530;27;20334;-71
2021/11/11 06:21:08;;;;;;;40.00;19.73;;;1.30;99.90;;;;;;5159025;27;20304;-70
2021/11/11 06:23:55;;;;;;;41.43;19.37;;;1.40;99.90;;;;;;5153981;27;20292;-70
2021/11/11 06:26:43;;;;;;;53.37;22.50;;;1.40;99.90;;;;;;5149441;27;20217;-70
2021/11/11 06:29:30;;;;;;;296.83;64.63;;;1.50;99.90;;;;;;5147724;27;20193;-70
2021/11/11 06:32:19;;;;;;;662.53;151.07;;;1.50;99.90;;;;;;5158102;27;20189;-70
2021/11/11 06:35:08;;;;;;;470.50;97.47;;;1.60;99.90;;;;;;5153502;27;20678;-70
2021/11/11 06:37:56;;;;;;;168.57;44.50;;;1.60;99.90;;;;;;5161021;27;20216;-70
2021/11/11 06:40:44;;;;;;;71.50;28.70;;;1.60;99.90;;;;;;5150043;27;20274;-70
2021/11/11 06:43:31;;;;;;;251.03;54.20;;;1.70;99.90;;;;;;5149400;27;20198;-69
2021/11/11 06:46:19;;;;;;;184.73;50.87;;;1.70;99.90;;;;;;5152657;27;20221;-70
2021/11/11 06:49:08;;;;;;;191.13;56.30;;;1.80;99.90;;;;;;5158574;27;20582;-70
2021/11/11 06:51:56;;;;;;;168.00;50.73;;;1.80;99.90;;;;;;5146926;27;20202;-69
2021/11/11 06:54:43;;;;;;;114.30;41.57;;;1.90;99.90;;;;;;5149245;27;20302;-70
2021/11/11 06:57:31;;;;;;;134.13;53.27;;;2.00;99.90;;;;;;5148135;27;20217;-70
2021/11/11 07:00:18;;;;;;;130.53;54.53;;;2.10;99.90;;;;;;5158712;27;20572;-69
2021/11/11 07:03:06;;;;;;;138.47;53.43;;;2.20;99.90;;;;;;5162017;27;20248;-70
2021/11/11 07:05:55;;;;;;;197.30;78.53;;;2.40;99.90;;;;;;5151940;27;20656;-71
2021/11/11 07:08:43;;;;;;;141.97;55.37;;;2.50;99.90;;;;;;5149073;27;20350;-70
2021/11/11 07:11:30;;;;;;;131.60;52.00;;;2.60;99.90;;;;;;5149418;27;20209;-70
2021/11/11 07:14:18;;;;;;;127.60;53.33;;;2.70;99.90;;;;;;5163078;27;20197;-69
2021/11/11 07:17:06;;;;;;;134.37;52.60;;;2.80;99.90;;;;;;5163424;27;20316;-70
2021/11/11 07:19:54;;;;;;;186.93;64.33;;;3.00;99.90;;;;;;5169436;27;20214;-70
2021/11/11 07:22:43;;;;;;;103.03;41.30;;;3.10;99.90;;;;;;5152863;27;20194;-70
2021/11/11 07:25:31;;;;;;;118.83;45.03;;;3.30;99.90;;;;;;5156507;27;20194;-70
2021/11/11 07:28:19;;;;;;;110.73;44.57;;;3.40;99.90;;;;;;5163527;27;20201;-71
2021/11/11 07:31:07;;;;;;;86.60;39.27;;;3.60;99.90;;;;;;5155917;27;20740;-70
2021/11/11 07:33:55;;;;;;;67.23;31.07;;;3.80;99.90;;;;;;5156365;27;20281;-69
2021/11/11 07:36:42;;;;;;;80.83;35.93;;;4.00;99.90;;;;;;5154063;27;20200;-70
2021/11/11 07:39:31;;;;;;;73.93;33.53;;;4.20;99.90;;;;;;5153417;27;20198;-69
2021/11/11 07:42:20;;;;;;;65.27;29.30;;;4.40;99.90;;;;;;5147531;27;20721;-70
2021/11/11 07:45:08;;;;;;;75.50;32.90;;;4.60;99.90;;;;;;5156612;27;20198;-70
2021/11/11 07:47:57;;;;;;;62.83;30.37;;;4.80;99.90;;;;;;5155919;27;20214;-69
2021/11/11 07:50:45;;;;;;;59.30;27.83;;;5.20;99.90;;;;;;5153139;27;20201;-70
2021/11/11 07:53:32;;;;;;;57.23;27.10;;;5.70;99.90;;;;;;5158934;27;20208;-70
2021/11/11 07:56:21;;;;;;;52.63;27.10;;;6.10;99.90;;;;;;5156101;27;20209;-70
2021/11/11 07:59:09;;;;;;;46.03;21.60;;;6.70;99.90;;;;;;5159394;27;20209;-70
2021/11/11 08:01:57;;;;;;;43.30;21.20;;;7.30;90.30;;;;;;5155962;27;20201;-70
2021/11/11 08:04:45;;;;;;;42.23;22.30;;;7.80;1.00;;;;;;5153265;27;20201;-71
2021/11/11 08:07:32;;;;;;;40.23;20.90;;;8.20;1.00;;;;;;5150669;27;20260;-71
2021/11/11 08:10:21;;;;;;;42.03;22.00;;;8.40;99.90;;;;;;5160550;27;20190;-71
2021/11/11 08:13:10;;;;;;;44.50;21.73;;;8.40;97.00;;;;;;5155635;27;20667;-71
2021/11/11 08:15:59;;;;;;;44.03;21.83;;;8.30;99.90;;;;;;5156050;27;20228;-71
2021/11/11 08:18:47;;;;;;;38.23;19.90;;;8.20;99.90;;;;;;5153583;27;20548;-71
2021/11/11 08:21:34;;;;;;;44.47;22.50;;;8.10;18.40;;;;;;5151233;27;20677;-70
2021/11/11 08:24:22;;;;;;;45.63;20.97;;;8.10;99.90;;;;;;5164140;27;20197;-70
2021/11/11 08:27:10;;;;;;;41.90;20.97;;;8.00;35.30;;;;;;5160605;27;20214;-70
2021/11/11 08:29:59;;;;;;;46.50;24.23;;;8.10;99.90;;;;;;5155651;27;20204;-70
2021/11/11 08:32:47;;;;;;;48.67;22.40;;;8.10;99.90;;;;;;5151972;27;20298;-70
2021/11/11 08:35:35;;;;;;;48.33;23.90;;;8.10;96.60;;;;;;5150018;27;20713;-70
2021/11/11 08:38:23;;;;;;;50.90;24.60;;;8.10;99.90;;;;;;5160950;27;20573;-70
2021/11/11 08:41:11;;;;;;;53.43;24.30;;;8.30;99.90;;;;;;5163479;27;20242;-70
2021/11/11 08:43:58;;;;;;;45.97;23.53;;;8.30;71.70;;;;;;5155622;27;20275;-71
2021/11/11 08:46:48;;;;;;;48.60;23.13;;;8.30;48.70;;;;;;5149884;27;20245;-71
2021/11/11 08:49:36;;;;;;;45.97;19.17;;;8.30;1.00;;;;;;5154246;27;20200;-70
2021/11/11 08:52:23;;;;;;;45.97;22.53;;;8.30;1.00;;;;;;5154739;27;20245;-71
2021/11/11 08:55:11;;;;;;;45.10;22.00;;;8.40;85.40;;;;;;5155565;27;20827;-71
2021/11/11 08:57:59;;;;;;;42.27;20.50;;;8.80;1.00;;;;;;5155975;27;20201;-71
2021/11/11 09:00:50;;;;;;;42.77;20.67;;;8.80;1.00;;;;;;5156390;27;20209;-70
2021/11/11 09:03:40;;;;;;;44.70;22.67;;;9.10;1.00;;;;;;5152808;27;20204;-70
2021/11/11 09:06:29;;;;;;;35.13;17.80;;;9.50;1.00;;;;;;5156349;27;20202;-70
2021/11/11 09:09:17;;;;;;;32.80;17.70;;;9.80;99.90;;;;;;5165839;27;20190;-70
2021/11/11 09:12:05;;;;;;;37.23;19.27;;;9.60;99.90;;;;;;5163515;27;20562;-70
2021/11/11 09:14:53;;;;;;;32.97;16.83;;;9.50;99.90;;;;;;5162848;27;20201;-70
2021/11/11 09:17:41;;;;;;;37.17;18.20;;;9.30;1.00;;;;;;5139002;27;20209;-70
2021/11/11 09:20:30;;;;;;;37.07;18.67;;;9.60;99.90;;;;;;5133990;27;20198;-72
2021/11/11 09:23:18;;;;;;;37.93;18.40;;;10.00;1.00;;;;;;5143594;27;20202;-70
2021/11/11 09:26:07;;;;;;;38.80;18.30;;;10.50;1.00;;;;;;5144464;27;20199;-70
2021/11/11 09:28:54;;;;;;;37.97;19.33;;;11.10;1.00;;;;;;5142150;27;20281;-70
2021/11/11 09:31:42;;;;;;;39.67;18.30;;;11.20;99.90;;;;;;5136254;27;20583;-70
2021/11/11 09:34:30;;;;;;;34.10;17.83;;;11.60;99.90;;;;;;5132431;27;20203;-70
2021/11/11 09:37:19;;;;;;;31.97;17.97;;;11.60;18.00;;;;;;5135522;27;20721;-69
2021/11/11 09:40:09;;;;;;;35.07;17.23;;;11.60;1.00;;;;;;5139992;27;20214;-70
2021/11/11 09:42:57;;;;;;;33.80;18.93;;;12.30;1.00;;;;;;5143003;27;20200;-70
2021/11/11 09:45:46;;;;;;;33.40;18.30;;;12.10;37.20;;;;;;5148234;27;20193;-69
2021/11/11 09:48:34;;;;;;;35.73;19.70;;;11.70;1.00;;;;;;5138573;27;20205;-69
2021/11/11 09:51:23;;;;;;;36.70;17.47;;;11.50;1.00;;;;;;5146690;27;20194;-69
2021/11/11 09:58:34;;;;;;;31.33;18.47;;;11.40;34.10;;;;;;5145981;27;20198;-69
2021/11/11 10:00:34;;;;;;;31.67;16.50;;;11.90;99.90;;;;;;5127279;27;20193;-69
2021/11/11 10:03:23;;;;;;;31.53;17.23;;;11.80;1.00;;;;;;5123029;27;20205;-69
2021/11/11 10:06:11;;;;;;;38.13;17.93;;;12.00;1.00;;;;;;5129425;27;20213;-70
2021/11/11 10:08:59;;;;;;;33.60;18.80;;;12.20;1.00;;;;;;5142860;27;20584;-70
2021/11/11 10:11:52;;;;;;;34.70;18.33;;;12.60;99.90;;;;;;5130138;27;20232;-70
2021/11/11 10:14:40;;;;;;;33.57;18.57;;;12.80;99.90;;;;;;5129968;27;20225;-70
2021/11/11 10:17:28;;;;;;;33.73;18.50;;;12.90;99.90;;;;;;5171689;27;20283;-70
2021/11/11 10:20:15;;;;;;;31.20;18.27;;;13.60;99.90;;;;;;5171827;27;20684;-70
2021/11/11 10:23:27;;;;;;;32.07;18.17;;;13.60;1.00;;;;;;5171836;27;20204;-70
2021/11/11 10:26:17;;;;;;;30.47;17.53;;;13.70;1.00;;;;;;5171810;27;20302;-70
2021/11/11 10:29:07;;;;;;;35.07;19.73;;;14.10;1.00;;;;;;5172289;27;20206;-70
2021/11/11 10:31:55;;;;;;;37.67;19.80;;;14.30;1.00;;;;;;5170686;27;20200;-70
2021/11/11 10:35:01;;;;;;;35.47;20.23;;;14.40;1.00;;;;;;5171027;27;20657;-70
2021/11/11 10:37:50;;;;;;;36.33;19.93;;;13.90;1.00;;;;;;5170797;27;20201;-70
2021/11/11 10:40:40;;;;;;;35.10;19.97;;;13.90;1.00;;;;;;5171466;27;20282;-70
2021/11/11 10:43:30;;;;;;;30.77;17.50;;;14.00;1.00;;;;;;5171225;27;20574;-69
2021/11/11 10:46:19;;;;;;;28.67;17.27;;;14.40;99.90;;;;;;5171115;27;20219;-70
2021/11/11 10:49:18;;;;;;;33.93;18.10;;;14.80;99.90;;;;;;5171614;27;20217;-70
2021/11/11 10:52:26;;;;;;;31.27;16.80;;;15.40;99.90;;;;;;5175937;27;20793;-70
2021/11/11 10:55:25;;;;;;;30.37;17.03;;;15.50;99.90;;;;;;5175379;27;20211;-70
2021/11/11 10:58:13;;;;;;;26.53;15.00;;;15.60;99.90;;;;;;5175325;27;20196;-70
2021/11/11 11:01:03;;;;;;;26.57;15.27;;;16.10;91.80;;;;;;5174788;27;20197;-70
2021/11/11 11:03:57;;;;;;;27.80;15.70;;;16.70;29.60;;;;;;5174701;27;20255;-70
2021/11/11 11:06:45;;;;;;;25.80;15.07;;;17.00;1.00;;;;;;5175302;27;20201;-70
2021/11/11 11:09:32;;;;;;;26.10;15.40;;;17.80;1.00;;;;;;5175208;27;20204;-70
2021/11/11 11:12:31;;;;;;;26.57;15.93;;;18.50;1.00;;;;;;5174487;27;20205;-70
2021/11/11 11:16:02;;;;;;;22.57;14.40;;;18.30;1.00;;;;;;5174333;27;20205;-70
2021/11/11 11:18:57;;;;;;;23.60;14.97;;;18.20;1.00;;;;;;5174703;27;20575;-70
2021/11/11 11:21:49;;;;;;;23.40;14.90;;;17.80;99.90;;;;;;5174887;27;20197;-71
2021/11/11 11:24:37;;;;;;;21.77;14.15;;;17.80;99.90;;;;;;5175213;27;20276;-70
2021/11/11 11:27:40;;;;;;;25.65;14.98;;;17.60;99.90;;;;;;5175198;27;20217;-70
2021/11/11 11:30:33;;;;;;;23.33;13.23;;;17.80;99.90;;;;;;5174529;27;20577;-71
2021/11/11 11:33:30;;;;;;;24.75;13.65;;;18.20;99.90;;;;;;5175083;27;20197;-71
2021/11/11 11:36:30;;;;;;;21.33;13.32;;;17.90;99.90;;;;;;5174613;27;20205;-71
2021/11/11 11:39:24;;;;;;;21.02;13.25;;;17.60;99.90;;;;;;5174164;27;20238;-70
2021/11/11 11:42:13;;;;;;;21.52;13.85;;;17.50;99.90;;;;;;5173833;27;20196;-70
2021/11/11 11:45:02;;;;;;;20.70;13.05;;;18.00;99.90;;;;;;5173938;27;20204;-70
2021/11/11 11:47:52;;;;;;;22.52;13.05;;;18.20;99.90;;;;;;5174620;27;20217;-70
2021/11/11 11:50:48;;;;;;;25.20;14.00;;;18.10;99.90;;;;;;5173728;27;20224;-70
2021/11/11 11:53:43;;;;;;;23.47;14.13;;;17.70;99.90;;;;;;5174415;27;20196;-70
2021/11/11 11:56:38;;;;;;;23.70;13.87;;;17.60;99.90;;;;;;5174419;27;20200;-70
2021/11/11 11:59:29;;;;;;;28.07;15.47;;;17.70;99.90;;;;;;5173028;27;20193;-70
2021/11/11 12:05:28;;;;;;;26.13;14.27;;;17.60;99.90;;;;;;5174357;27;20192;-70
2021/11/11 12:08:33;;;;;;;28.33;14.18;;;17.60;99.90;;;;;;5173628;27;20216;-71
2021/11/11 12:11:41;;;;;;;25.63;13.60;;;18.00;99.90;;;;;;5173734;27;20272;-70
2021/11/11 12:14:42;;;;;;;24.20;15.00;;;17.80;99.90;;;;;;5173272;27;20212;-70
2021/11/11 12:17:50;;;;;;;23.37;14.90;;;18.40;99.90;;;;;;5132573;27;20302;-70
2021/11/11 12:40:18;;;;;;;24.77;14.17;;;22.70;99.90;;;;;;4988439;28;20199;-70
2021/11/11 12:43:16;;;;;;;23.73;14.90;;;23.00;99.90;;;;;;4988571;28;20210;-70
2021/11/11 12:46:03;;;;;;;26.90;14.10;;;22.70;99.90;;;;;;4976016;28;20319;-70
2021/11/11 12:49:19;;;;;;;26.23;15.47;;;23.20;99.90;;;;;;4988363;28;20211;-70
2021/11/11 12:52:26;;;;;;;20.87;12.53;;;23.00;99.90;;;;;;4988233;28;20211;-71
2021/11/11 12:55:17;;;;;;;22.80;12.73;;;22.40;99.90;;;;;;4988517;28;20286;-70
2021/11/11 12:58:05;;;;;;;19.63;11.67;;;21.90;98.00;;;;;;4987946;28;20205;-70
2021/11/11 13:00:55;;;;;;;21.80;12.47;;;22.00;98.20;;;;;;5068139;28;20728;-71
2021/11/11 13:03:48;;;;;;;20.10;12.40;;;22.30;96.80;;;;;;5067562;28;20204;-71
2021/11/11 13:06:37;;;;;;;21.93;12.57;;;22.20;91.50;;;;;;5066821;28;20215;-70
2021/11/11 13:09:28;;;;;;;19.47;12.07;;;21.90;83.60;;;;;;5066532;28;20228;-71
2021/11/11 13:12:17;;;;;;;22.40;12.60;;;21.80;72.40;;;;;;5128715;27;20623;-70
2021/11/11 13:15:07;;;;;;;22.60;12.80;;;21.00;67.00;;;;;;5131063;27;20573;-70
2021/11/11 13:17:58;;;;;;;21.80;12.80;;;20.70;71.20;;;;;;5131136;27;20542;-70
2021/11/11 13:20:48;;;;;;;22.07;11.90;;;20.20;73.10;;;;;;5131194;27;20191;-70
2021/11/11 13:23:41;;;;;;;22.53;12.40;;;20.80;79.90;;;;;;5130252;27;20201;-71
2021/11/11 14:01:31;;;;;;;21.60;12.17;;;20.50;39.80;;;;;;5007350;28;20198;-70
2021/11/11 15:16:52;;;;;;;35.30;17.93;;;10.10;99.90;;;;;;5078281;28;20709;-70
2021/11/11 15:59:48;;;;;;;47.43;23.10;;;7.50;99.90;;;;;;5090022;28;20218;-70
2021/11/11 16:00:57;;;;;;;50.07;22.77;;;7.40;99.90;;;;;;5140133;27;20289;-71
2021/11/11 16:04:11;;;;;;;49.80;23.00;;;7.30;1.00;;;;;;5152855;27;20196;-70
2021/11/11 16:19:43;;;;;;;67.70;30.53;;;6.60;1.00;;;;;;5173302;27;20199;-70
2021/11/11 16:22:35;;;;;;;88.57;38.43;;;6.50;1.00;;;;;;5173929;27;20198;-70
2021/11/11 16:25:37;;;;;;;93.57;40.90;;;6.40;1.00;;;;;;5173873;27;20244;-70
2021/11/11 16:28:25;;;;;;;104.90;46.20;;;6.30;1.00;;;;;;5173965;27;20601;-70
2021/11/11 16:31:15;;;;;;;91.60;39.03;;;6.20;1.00;;;;;;5173658;27;20277;-70
2021/11/11 16:34:03;;;;;;;60.77;29.20;;;6.10;1.00;;;;;;5173388;27;20210;-70
2021/11/11 16:36:50;;;;;;;67.13;29.97;;;6.00;1.00;;;;;;5173679;27;20193;-70
2021/11/11 16:39:38;;;;;;;96.00;37.30;;;6.00;1.00;;;;;;5173026;27;20589;-70
2021/11/11 16:42:26;;;;;;;342.83;63.83;;;5.90;1.00;;;;;;5173430;27;20203;-70
2021/11/11 16:45:14;;;;;;;260.77;57.10;;;5.80;1.00;;;;;;5173013;27;20204;-70
2021/11/11 16:48:03;;;;;;;151.67;42.80;;;5.80;1.00;;;;;;5173386;27;20197;-71
2021/11/11 16:50:51;;;;;;;225.13;55.23;;;5.60;1.00;;;;;;5173524;27;20220;-70
2021/11/11 16:53:39;;;;;;;75.60;33.40;;;5.50;1.00;;;;;;5173413;27;20679;-71
2021/11/11 16:56:27;;;;;;;101.90;35.03;;;5.40;1.00;;;;;;5173023;27;20308;-70
2021/11/11 16:59:15;;;;;;;106.97;38.40;;;5.30;1.00;;;;;;5173003;27;20208;-70
2021/11/11 17:02:03;;;;;;;96.00;37.07;;;5.20;1.00;;;;;;5172912;27;20204;-70
2021/11/11 17:04:52;;;;;;;120.37;46.57;;;5.20;1.00;;;;;;5172519;27;20205;-70
2021/11/11 17:07:40;;;;;;;92.53;40.20;;;5.10;1.00;;;;;;5172878;27;20197;-70
2021/11/11 17:10:27;;;;;;;62.93;28.67;;;5.00;1.00;;;;;;5172415;27;20217;-70
2021/11/11 17:13:15;;;;;;;55.53;25.23;;;5.00;1.00;;;;;;5172794;27;20285;-70
2021/11/11 17:16:04;;;;;;;72.63;32.47;;;4.90;1.00;;;;;;5172467;27;20257;-70
2021/11/11 17:18:54;;;;;;;110.90;46.13;;;4.80;1.00;;;;;;5172776;27;20277;-70
2021/11/11 17:21:45;;;;;;;76.57;33.37;;;4.80;13.00;;;;;;5172674;27;20680;-70
2021/11/11 17:24:35;;;;;;;75.13;31.03;;;4.70;12.10;;;;;;5171952;27;20193;-70
2021/11/11 17:27:29;;;;;;;60.63;27.33;;;4.60;20.40;;;;;;5172694;27;20201;-70
2021/11/11 17:30:17;;;;;;;60.93;25.70;;;4.60;29.40;;;;;;5171611;27;20216;-70
2021/11/11 17:33:05;;;;;;;62.97;27.07;;;4.50;42.30;;;;;;5172617;27;20205;-71
2021/11/11 17:35:52;;;;;;;67.70;28.33;;;4.50;41.30;;;;;;5172823;27;20253;-70
2021/11/11 17:38:43;;;;;;;57.27;26.47;;;4.50;56.60;;;;;;5172379;27;20185;-70
2021/11/11 17:41:31;;;;;;;65.67;27.87;;;4.40;63.60;;;;;;5171905;27;20197;-70
2021/11/11 17:44:18;;;;;;;53.77;24.83;;;4.40;61.80;;;;;;5172248;27;20198;-70
2021/11/11 17:47:08;;;;;;;75.87;30.93;;;4.40;57.00;;;;;;5171455;27;20204;-70